createdAt,value
2022-11-02T00:02:23.292Z,18.70
2022-11-02T00:04:50.047Z,8.70
2022-11-02T00:07:17.806Z,9.90
2022-11-02T00:09:44.402Z,39.70
2022-11-02T00:12:11.034Z,59.10
2022-11-02T00:14:37.738Z,64.50
2022-11-02T00:17:04.512Z,67.90
2022-11-02T00:19:31.169Z,68.50
2022-11-02T00:21:58.808Z,90.50
2022-11-02T00:24:25.592Z,93.70
2022-11-02T00:26:54.051Z,97.80
2022-11-02T00:29:21.622Z,91.30
2022-11-02T00:31:51.771Z,77.80
2022-11-02T00:34:18.605Z,69.20
2022-11-02T00:36:45.356Z,77.40
2022-11-02T00:39:15.065Z,78.70
2022-11-02T00:41:41.745Z,83.60
2022-11-02T00:44:09.159Z,81.70
2022-11-02T00:46:38.543Z,90.70
2022-11-02T00:49:06.027Z,97.00
2022-11-02T00:51:32.623Z,98.90
2022-11-02T00:53:59.223Z,97.70
2022-11-02T00:56:25.815Z,96.70
2022-11-02T00:58:52.996Z,92.70
2022-11-02T01:01:19.953Z,92.70
2022-11-02T01:03:46.690Z,93.40
2022-11-02T01:06:15.495Z,94.80
2022-11-02T01:08:42.457Z,99.20
2022-11-02T01:11:17.876Z,99.90
2022-11-02T01:13:45.370Z,99.90
2022-11-02T01:16:13.136Z,99.90
2022-11-02T01:18:40.685Z,98.20
2022-11-02T01:21:08.841Z,97.10
2022-11-02T01:23:37.184Z,94.80
2022-11-02T01:26:10.350Z,93.30
2022-11-02T01:28:37.241Z,96.20
2022-11-02T01:31:04.225Z,97.10
2022-11-02T01:33:34.082Z,94.40
2022-11-02T01:36:04.102Z,96.30
2022-11-02T01:38:31.451Z,98.20
2022-11-02T01:40:58.361Z,99.90
2022-11-02T01:43:31.741Z,99.90
2022-11-02T01:46:12.906Z,99.90
2022-11-02T01:48:50.390Z,99.90
2022-11-02T01:51:26.966Z,99.90
2022-11-02T01:53:56.562Z,99.90
2022-11-02T01:56:25.626Z,99.90
2022-11-02T01:58:57.269Z,99.90
2022-11-02T02:01:24.393Z,99.90
2022-11-02T02:03:53.062Z,99.90
2022-11-02T02:06:25.824Z,99.90
2022-11-02T02:08:54.506Z,99.90
2022-11-02T02:11:26.353Z,99.90
2022-11-02T02:14:14.717Z,99.90
2022-11-02T02:17:04.071Z,99.90
2022-11-02T02:19:58.106Z,99.90
2022-11-02T02:22:42.895Z,99.90
2022-11-02T02:25:24.952Z,99.90
2022-11-02T02:27:57.563Z,99.90
2022-11-02T02:30:24.410Z,99.90
2022-11-02T02:33:15.862Z,99.90
2022-11-02T02:35:45.440Z,99.90
2022-11-02T02:38:19.237Z,99.90
2022-11-02T02:40:52.126Z,99.90
2022-11-02T02:43:24.987Z,99.90
2022-11-02T02:46:01.333Z,99.90
2022-11-02T02:48:31.043Z,99.90
2022-11-02T02:51:05.550Z,99.90
2022-11-02T02:54:07.718Z,99.90
2022-11-02T02:56:48.159Z,99.90
2022-11-02T02:59:22.263Z,99.90
2022-11-02T03:01:52.017Z,99.90
2022-11-02T03:04:18.762Z,99.90
2022-11-02T03:06:51.680Z,99.90
2022-11-02T03:09:21.217Z,99.90
2022-11-02T03:12:24.175Z,99.90
2022-11-02T03:15:12.588Z,99.90
2022-11-02T03:18:11.142Z,99.90
2022-11-02T03:21:17.908Z,99.90
2022-11-02T03:23:52.525Z,99.90
2022-11-02T03:26:34.930Z,99.90
2022-11-02T03:29:07.087Z,99.90
2022-11-02T03:31:39.750Z,99.90
2022-11-02T03:34:25.944Z,99.90
2022-11-02T03:37:01.841Z,99.90
2022-11-02T03:39:39.170Z,99.90
2022-11-02T03:42:10.666Z,99.90
2022-11-02T03:44:59.031Z,99.90
2022-11-02T03:47:30.890Z,99.90
2022-11-02T03:49:58.507Z,99.90
2022-11-02T03:52:30.092Z,99.90
2022-11-02T03:55:11.550Z,99.90
2022-11-02T03:57:45.857Z,99.90
2022-11-02T04:00:17.880Z,99.90
2022-11-02T04:02:48.176Z,99.90
2022-11-02T04:05:16.092Z,99.90
2022-11-02T04:08:05.587Z,99.90
2022-11-02T04:10:32.492Z,99.90
2022-11-02T04:13:25.494Z,99.90
2022-11-02T04:15:52.195Z,99.90
2022-11-02T04:18:37.375Z,99.90
2022-11-02T04:21:04.059Z,99.90
2022-11-02T04:23:49.163Z,99.90
2022-11-02T04:26:15.792Z,99.90
2022-11-02T04:28:42.453Z,99.90
2022-11-02T04:31:12.911Z,99.90
2022-11-02T04:33:40.561Z,99.90
2022-11-02T04:36:08.105Z,99.90
2022-11-02T04:38:40.575Z,99.90
2022-11-02T04:41:31.182Z,95.30
2022-11-02T04:43:58.263Z,86.60
2022-11-02T04:46:27.730Z,75.30
2022-11-02T04:48:54.563Z,56.20
2022-11-02T04:51:22.747Z,36.50
2022-11-02T04:53:50.183Z,32.10
2022-11-02T04:56:16.834Z,26.40
2022-11-02T04:58:43.644Z,15.90
2022-11-02T05:01:15.701Z,7.60
2022-11-02T05:03:42.763Z,29.00
2022-11-02T05:06:12.521Z,26.80
2022-11-02T05:08:39.438Z,34.80
2022-11-02T05:11:10.535Z,94.70
2022-11-02T05:13:38.666Z,99.90
2022-11-02T05:16:06.120Z,99.90
2022-11-02T05:18:33.281Z,99.90
2022-11-02T05:21:02.104Z,99.50
2022-11-02T05:23:29.385Z,94.10
2022-11-02T05:25:56.917Z,90.90
2022-11-02T05:28:24.642Z,84.40
2022-11-02T05:30:51.757Z,59.20
2022-11-02T05:33:19.084Z,44.50
2022-11-02T05:35:45.891Z,25.80
2022-11-02T05:38:12.668Z,13.60
2022-11-02T05:40:40.766Z,1.00
2022-11-02T05:43:11.750Z,1.00
2022-11-02T05:45:38.572Z,1.00
2022-11-02T05:48:10.851Z,1.00
2022-11-02T05:50:37.454Z,1.00
2022-11-02T05:53:04.407Z,1.00
2022-11-02T05:55:31.161Z,1.00
2022-11-02T05:57:57.838Z,1.00
2022-11-02T06:00:24.465Z,1.00
2022-11-02T06:02:58.350Z,1.00
2022-11-02T06:05:26.425Z,1.00
2022-11-02T06:07:53.256Z,1.00
2022-11-02T06:10:19.978Z,1.00
2022-11-02T06:12:46.710Z,1.00
2022-11-02T06:15:13.336Z,9.60
2022-11-02T06:17:40.485Z,6.80
2022-11-02T06:20:08.124Z,26.90
2022-11-02T06:22:42.182Z,29.30
2022-11-02T06:25:09.699Z,42.70
2022-11-02T06:27:36.606Z,64.90
2022-11-02T06:30:08.042Z,78.80
2022-11-02T06:32:34.778Z,84.50
2022-11-02T06:35:01.407Z,83.50
2022-11-02T06:37:28.123Z,73.00
2022-11-02T06:39:54.922Z,57.20
2022-11-02T06:42:21.634Z,45.60
2022-11-02T06:44:48.290Z,45.20
2022-11-02T06:47:14.947Z,54.10
2022-11-02T06:49:41.611Z,51.90
2022-11-02T06:52:10.455Z,50.40
2022-11-02T06:54:37.132Z,69.00
2022-11-02T06:57:03.926Z,63.30
2022-11-02T06:59:30.654Z,46.10
2022-11-02T07:02:00.320Z,19.60
2022-11-02T07:04:27.056Z,1.00
2022-11-02T07:06:53.700Z,1.00
2022-11-02T07:09:20.330Z,1.00
2022-11-02T07:11:47.040Z,1.00
2022-11-02T07:14:14.009Z,1.00
2022-11-02T07:16:40.684Z,99.90
2022-11-02T07:19:07.332Z,1.00
2022-11-02T07:21:33.979Z,1.00
2022-11-02T07:24:00.662Z,99.90
2022-11-02T07:26:28.493Z,1.00
2022-11-02T07:28:56.827Z,1.00
2022-11-02T07:31:27.591Z,1.00
2022-11-02T07:33:54.245Z,99.90
2022-11-02T07:36:20.876Z,99.90
2022-11-02T07:38:50.977Z,99.90
2022-11-02T07:41:17.619Z,1.00
2022-11-02T07:43:44.361Z,1.00
2022-11-02T07:46:11.559Z,1.00
2022-11-02T07:48:38.236Z,1.00
2022-11-02T07:51:07.117Z,1.00
2022-11-02T07:53:34.497Z,1.00
2022-11-02T07:56:01.513Z,1.00
2022-11-02T07:58:28.186Z,1.00
2022-11-02T08:00:59.953Z,1.00
2022-11-02T08:03:28.389Z,1.00
2022-11-02T08:05:55.435Z,1.00
2022-11-02T08:08:24.175Z,1.00
2022-11-02T08:10:52.448Z,1.00
2022-11-02T08:13:21.896Z,1.00
2022-11-02T08:15:52.721Z,99.90
2022-11-02T08:18:24.337Z,99.90
2022-11-02T08:20:51.557Z,99.90
2022-11-02T08:23:19.700Z,99.90
2022-11-02T08:25:48.091Z,99.90
2022-11-02T08:28:17.748Z,99.90
2022-11-02T08:30:44.596Z,99.90
2022-11-02T08:33:13.418Z,99.90
2022-11-02T08:35:42.757Z,99.90
2022-11-02T08:38:09.891Z,99.90
2022-11-02T08:40:37.342Z,99.90
2022-11-02T08:43:09.614Z,99.90
2022-11-02T08:46:12.486Z,99.90
2022-11-02T08:48:26.064Z,99.90
2022-11-02T08:50:56.243Z,99.90
2022-11-02T08:53:23.127Z,99.90
2022-11-02T08:55:49.953Z,99.90
2022-11-02T08:58:16.658Z,99.90
2022-11-02T09:00:43.275Z,99.90
2022-11-02T09:03:15.022Z,99.90
2022-11-02T09:05:46.077Z,99.90
2022-11-02T09:08:18.110Z,99.90
2022-11-02T09:10:46.537Z,99.90
2022-11-02T09:13:14.760Z,99.90
2022-11-02T09:15:42.033Z,99.90
2022-11-02T09:18:09.191Z,99.90
2022-11-02T09:20:36.822Z,99.90
2022-11-02T09:23:03.923Z,99.90
2022-11-02T09:25:30.679Z,99.90
2022-11-02T09:27:57.823Z,99.90
2022-11-02T09:30:28.750Z,99.90
2022-11-02T09:32:55.475Z,99.90
2022-11-02T09:35:22.765Z,99.90
2022-11-02T09:37:51.062Z,99.90
2022-11-02T09:40:23.850Z,99.90
2022-11-02T09:43:23.090Z,99.90
2022-11-02T09:45:58.432Z,99.90
2022-11-02T09:48:44.988Z,99.90
2022-11-02T09:51:25.242Z,99.90
2022-11-02T09:54:17.839Z,99.90
2022-11-02T09:56:46.188Z,99.90
2022-11-02T09:59:19.704Z,99.90
2022-11-02T10:02:14.109Z,99.90
2022-11-02T10:04:46.642Z,99.90
2022-11-02T10:07:16.044Z,99.90
2022-11-02T10:09:57.623Z,99.90
2022-11-02T10:12:34.367Z,99.90
2022-11-02T10:15:20.378Z,99.90
2022-11-02T10:17:50.851Z,99.90
2022-11-02T10:20:27.500Z,99.90
2022-11-02T10:23:03.463Z,99.90
2022-11-02T10:25:31.128Z,99.90
2022-11-02T10:28:09.182Z,99.90
2022-11-02T10:30:37.296Z,99.90
2022-11-02T10:33:13.289Z,99.90
2022-11-02T10:36:16.421Z,99.90
2022-11-02T10:39:04.043Z,99.90
2022-11-02T10:41:59.809Z,99.90
2022-11-02T10:44:37.415Z,99.90
2022-11-02T10:47:18.467Z,99.90
2022-11-02T10:50:08.024Z,99.90
2022-11-02T10:52:40.587Z,99.90
2022-11-02T10:55:17.232Z,99.90
2022-11-02T10:57:43.961Z,99.90
2022-11-02T11:00:34.738Z,99.90
2022-11-02T11:03:05.273Z,99.90
2022-11-02T11:05:35.541Z,99.90
2022-11-02T11:08:03.373Z,99.90
2022-11-02T11:10:36.370Z,99.90
2022-11-02T11:13:04.025Z,99.90
2022-11-02T11:15:49.795Z,99.90
2022-11-02T11:21:07.566Z,99.90
2022-11-02T11:23:34.629Z,99.90
2022-11-02T11:26:04.005Z,99.90
2022-11-02T11:28:52.695Z,99.90
2022-11-02T11:31:19.907Z,99.90
2022-11-02T11:33:51.547Z,99.90
2022-11-02T11:36:31.049Z,99.90
2022-11-02T11:39:24.019Z,99.90
2022-11-02T11:41:50.739Z,99.90
2022-11-02T11:44:17.637Z,99.90
2022-11-02T11:46:46.652Z,99.90
2022-11-02T11:50:08.082Z,99.90
2022-11-02T11:52:31.702Z,99.90
2022-11-02T11:55:04.788Z,99.90
2022-11-02T11:57:34.838Z,99.90
2022-11-02T12:00:25.739Z,99.90
2022-11-02T12:03:07.527Z,99.90
2022-11-02T12:05:38.032Z,99.90
2022-11-02T12:08:10.661Z,99.90
2022-11-02T12:11:00.049Z,99.90
2022-11-02T12:13:45.203Z,99.90
2022-11-02T12:16:30.607Z,99.90
2022-11-02T12:19:33.948Z,99.90
2022-11-02T12:22:22.930Z,99.90
2022-11-02T12:24:52.423Z,99.90
2022-11-02T12:28:03.498Z,99.90
2022-11-02T12:31:06.423Z,99.90
2022-11-02T12:33:41.355Z,99.90
2022-11-02T12:36:30.218Z,99.90
2022-11-02T12:39:03.333Z,99.90
2022-11-02T12:41:55.481Z,99.90
2022-11-02T12:44:51.559Z,99.90
2022-11-02T12:47:33.666Z,99.90
2022-11-02T12:50:12.922Z,99.90
2022-11-02T12:53:04.224Z,99.90
2022-11-02T12:55:40.008Z,99.90
2022-11-02T12:58:15.402Z,99.90
2022-11-02T13:00:45.324Z,99.90
2022-11-02T13:03:39.778Z,99.90
2022-11-02T13:06:12.262Z,99.90
2022-11-02T13:08:48.860Z,99.90
2022-11-02T13:11:31.150Z,99.90
2022-11-02T13:13:59.579Z,99.90
2022-11-02T13:16:44.197Z,99.90
2022-11-02T13:19:39.089Z,99.90
2022-11-02T13:22:18.149Z,99.90
2022-11-02T13:24:49.363Z,99.90
2022-11-02T13:27:40.498Z,99.90
2022-11-02T13:30:15.807Z,99.90
2022-11-02T13:32:56.603Z,99.90
2022-11-02T13:35:35.195Z,99.90
2022-11-02T13:38:44.408Z,99.90
2022-11-02T13:41:38.215Z,99.90
2022-11-02T13:44:17.914Z,99.90
2022-11-02T13:47:08.851Z,99.90
2022-11-02T13:49:43.896Z,99.90
2022-11-02T13:52:15.237Z,99.90
2022-11-02T13:54:54.448Z,99.90
2022-11-02T13:57:34.806Z,99.90
2022-11-02T14:00:04.224Z,99.90
2022-11-02T14:02:37.051Z,99.90
2022-11-02T14:05:04.249Z,99.90
2022-11-02T14:07:40.969Z,99.90
2022-11-02T14:10:15.585Z,99.90
2022-11-02T14:12:49.199Z,99.90
2022-11-02T14:15:15.794Z,99.90
2022-11-02T14:17:51.544Z,99.90
2022-11-02T14:20:40.549Z,99.90
2022-11-02T14:23:14.107Z,99.90
2022-11-02T14:25:56.348Z,99.90
2022-11-02T14:28:22.946Z,99.90
2022-11-02T14:31:17.373Z,99.90
2022-11-02T14:33:59.165Z,99.90
2022-11-02T14:36:59.288Z,99.90
2022-11-02T14:39:52.826Z,99.90
2022-11-02T14:42:36.021Z,99.90
2022-11-02T14:45:05.655Z,99.90
2022-11-02T14:47:36.959Z,99.90
2022-11-02T14:50:10.517Z,99.90
2022-11-02T14:52:40.302Z,99.90
2022-11-02T14:55:21.675Z,99.90
2022-11-02T14:57:57.861Z,99.90
2022-11-02T15:00:58.519Z,99.90
2022-11-02T15:03:25.245Z,99.90
2022-11-02T15:06:13.422Z,99.90
2022-11-02T15:08:49.180Z,99.90
2022-11-02T15:11:51.228Z,99.90
2022-11-02T15:14:39.747Z,99.90
2022-11-02T15:17:15.200Z,99.90
2022-11-02T15:19:47.189Z,99.90
2022-11-02T15:22:28.956Z,99.90
2022-11-02T15:25:03.062Z,99.90
2022-11-02T15:27:30.622Z,99.90
2022-11-02T15:30:02.428Z,99.90
2022-11-02T15:32:32.993Z,99.90
2022-11-02T15:35:05.582Z,99.90
2022-11-02T15:37:50.368Z,99.90
2022-11-02T15:40:25.931Z,99.90
2022-11-02T15:43:22.251Z,99.90
2022-11-02T15:46:09.275Z,99.90
2022-11-02T15:48:51.905Z,99.90
2022-11-02T15:51:30.733Z,99.90
2022-11-02T15:54:03.389Z,99.90
2022-11-02T15:56:48.504Z,99.90
2022-11-02T15:59:37.212Z,99.90
2022-11-02T16:02:18.621Z,99.90
2022-11-02T16:04:47.979Z,99.90
2022-11-02T16:07:17.430Z,99.90
2022-11-02T16:09:48.815Z,99.90
2022-11-02T16:12:24.920Z,99.90
2022-11-02T16:15:29.984Z,99.90
2022-11-02T16:17:58.339Z,99.90
2022-11-02T16:20:29.038Z,99.90
2022-11-02T16:23:08.728Z,99.90
2022-11-02T16:25:46.773Z,99.90
2022-11-02T16:28:29.578Z,99.90
2022-11-02T16:31:19.790Z,99.90
2022-11-02T16:33:55.447Z,99.90
2022-11-02T16:36:28.247Z,99.90
2022-11-02T16:39:13.624Z,99.90
2022-11-02T16:41:52.268Z,99.90
2022-11-02T16:44:25.972Z,99.90
2022-11-02T16:46:57.043Z,99.90
2022-11-02T16:49:25.700Z,99.90
2022-11-02T16:52:18.610Z,99.90
2022-11-02T16:54:45.776Z,99.90
2022-11-02T16:57:12.580Z,99.90
2022-11-02T16:59:53.269Z,99.90
2022-11-02T17:02:30.423Z,99.90
2022-11-02T17:05:02.324Z,99.90
2022-11-02T17:07:44.793Z,99.90
2022-11-02T17:10:20.718Z,99.90
2022-11-02T17:12:48.783Z,99.90
2022-11-02T17:15:24.231Z,99.90
2022-11-02T17:18:09.351Z,99.90
2022-11-02T17:20:39.709Z,99.90
2022-11-02T17:23:29.063Z,1.00
2022-11-02T17:26:24.804Z,1.00
2022-11-02T17:29:22.873Z,1.00
2022-11-02T17:32:00.406Z,1.00
2022-11-02T17:34:27.793Z,1.00
2022-11-02T17:36:54.717Z,1.00
2022-11-02T17:39:23.498Z,99.90
2022-11-02T17:42:12.899Z,1.00
2022-11-02T17:44:39.888Z,99.90
2022-11-02T17:47:24.951Z,1.00
2022-11-02T17:49:51.614Z,70.40
2022-11-02T17:52:18.359Z,99.90
2022-11-02T17:54:45.260Z,1.00
2022-11-02T17:57:13.686Z,1.00
2022-11-02T17:59:40.510Z,1.00
2022-11-02T18:02:15.496Z,99.90
2022-11-02T18:07:16.145Z,99.90
2022-11-02T18:09:42.816Z,14.50
2022-11-02T18:12:12.937Z,9.10
2022-11-02T18:14:40.406Z,83.70
2022-11-02T18:17:07.566Z,99.90
2022-11-02T18:19:34.294Z,99.90
2022-11-02T18:22:01.436Z,99.90
2022-11-02T18:24:28.319Z,1.00
2022-11-02T18:26:55.697Z,99.90
2022-11-02T18:29:22.582Z,1.00
2022-11-02T18:31:50.038Z,1.00
2022-11-02T18:34:16.677Z,1.00
2022-11-02T18:36:44.138Z,90.60
2022-11-02T18:39:10.868Z,99.90
2022-11-02T18:41:38.412Z,1.00
2022-11-02T18:44:14.866Z,99.90
2022-11-02T18:46:42.318Z,99.90
2022-11-02T18:49:09.408Z,99.90
2022-11-02T18:51:36.179Z,99.90
2022-11-02T18:54:05.273Z,99.90
2022-11-02T18:56:32.239Z,99.90
2022-11-02T18:58:59.167Z,99.90
2022-11-02T19:01:29.268Z,1.00
2022-11-02T19:03:58.442Z,1.00
2022-11-02T19:06:45.049Z,1.00
2022-11-02T19:09:19.872Z,1.00
2022-11-02T19:11:54.220Z,1.00
2022-11-02T19:14:22.036Z,1.00
2022-11-02T19:16:50.862Z,1.00
2022-11-02T19:19:17.504Z,81.20
2022-11-02T19:21:44.196Z,99.90
2022-11-02T19:24:17.036Z,99.90
2022-11-02T19:26:43.728Z,99.90
2022-11-02T19:29:10.397Z,99.90
2022-11-02T19:31:37.091Z,99.90
2022-11-02T19:34:04.311Z,99.90
2022-11-02T19:36:31.560Z,1.00
2022-11-02T19:38:59.955Z,1.00
2022-11-02T19:41:26.643Z,1.00
2022-11-02T19:43:55.683Z,1.00
2022-11-02T19:46:22.883Z,1.00
2022-11-02T19:48:52.564Z,1.00
2022-11-02T19:51:22.193Z,1.00
2022-11-02T19:53:50.711Z,1.00
2022-11-02T19:56:19.140Z,1.00
2022-11-02T19:58:48.072Z,1.00
2022-11-02T20:01:17.055Z,1.00
2022-11-02T20:03:47.478Z,1.00
2022-11-02T20:06:23.253Z,1.00
2022-11-02T20:08:51.277Z,1.00
2022-11-02T20:11:18.592Z,1.00
2022-11-02T20:13:47.029Z,1.00
2022-11-02T20:16:16.100Z,1.00
2022-11-02T20:18:43.919Z,1.00
2022-11-02T20:21:26.877Z,1.00
2022-11-02T20:23:58.084Z,1.00
2022-11-02T20:26:31.211Z,1.00
2022-11-02T20:28:59.662Z,1.00
2022-11-02T20:31:29.865Z,1.00
2022-11-02T20:33:58.047Z,1.00
2022-11-02T20:36:24.716Z,1.00
2022-11-02T20:38:52.043Z,1.00
2022-11-02T20:41:20.606Z,1.00
2022-11-02T20:43:49.192Z,1.00
2022-11-02T20:46:43.287Z,1.00
2022-11-02T20:49:22.116Z,1.00
2022-11-02T20:51:56.025Z,1.00
2022-11-02T20:54:22.924Z,1.00
2022-11-02T20:56:50.197Z,1.00
2022-11-02T20:59:17.398Z,1.00
2022-11-02T21:01:47.306Z,1.00
2022-11-02T21:04:19.695Z,1.00
2022-11-02T21:06:48.068Z,1.00
2022-11-02T21:09:14.738Z,1.00
2022-11-02T21:11:59.996Z,1.00
2022-11-02T21:14:27.729Z,1.00
2022-11-02T21:16:54.349Z,1.00
2022-11-02T21:19:21.004Z,1.00
2022-11-02T21:21:47.669Z,1.00
2022-11-02T21:24:14.275Z,1.00
2022-11-02T21:26:40.895Z,1.00
2022-11-02T21:29:08.667Z,1.00
2022-11-02T21:31:35.319Z,1.00
2022-11-02T21:34:01.952Z,1.00
2022-11-02T21:36:28.866Z,1.00
2022-11-02T21:38:56.025Z,1.00
2022-11-02T21:41:29.124Z,1.00
2022-11-02T21:43:56.034Z,1.00
2022-11-02T21:46:26.895Z,1.00
2022-11-02T21:48:55.293Z,1.00
2022-11-02T21:51:25.068Z,1.00
2022-11-02T21:53:51.871Z,1.00
2022-11-02T21:56:18.465Z,1.00
2022-11-02T21:58:46.555Z,1.00
2022-11-02T22:01:45.560Z,1.00
2022-11-02T22:04:28.768Z,1.00
2022-11-02T22:06:58.566Z,1.00
2022-11-02T22:09:26.070Z,1.00
2022-11-02T22:12:11.413Z,17.40
2022-11-02T22:14:38.409Z,32.80
2022-11-02T22:17:16.349Z,46.10
2022-11-02T22:19:50.534Z,47.10
2022-11-02T22:22:19.872Z,35.30
2022-11-02T22:24:46.798Z,25.50
2022-11-02T22:27:13.484Z,20.10
2022-11-02T22:29:40.155Z,14.50
2022-11-02T22:32:09.195Z,3.50
2022-11-02T22:34:36.803Z,1.00
2022-11-02T22:37:25.020Z,1.00
2022-11-02T22:39:51.641Z,1.00
2022-11-02T22:42:18.298Z,1.00
2022-11-02T22:44:45.221Z,1.00
2022-11-02T22:47:11.886Z,1.00
2022-11-02T22:49:38.541Z,1.00
2022-11-02T22:52:05.332Z,1.00
2022-11-02T22:54:31.934Z,1.00
2022-11-02T22:56:58.671Z,1.00
2022-11-02T22:59:25.283Z,1.00
2022-11-02T23:01:52.180Z,1.00
2022-11-02T23:04:22.028Z,1.00
2022-11-02T23:06:48.637Z,1.00
2022-11-02T23:09:15.275Z,1.00
2022-11-02T23:11:43.833Z,1.00
2022-11-02T23:14:14.905Z,1.00
2022-11-02T23:16:49.092Z,1.00
2022-11-02T23:19:29.301Z,1.00
2022-11-02T23:22:33.621Z,1.00
2022-11-02T23:25:11.442Z,1.00
2022-11-02T23:27:56.757Z,1.00
2022-11-02T23:30:43.208Z,1.00
2022-11-02T23:33:10.159Z,1.00
2022-11-02T23:35:55.734Z,1.00
2022-11-02T23:38:22.573Z,1.00
2022-11-02T23:40:56.318Z,1.00
2022-11-02T23:43:22.924Z,1.00
2022-11-02T23:45:49.560Z,1.00
2022-11-02T23:51:06.593Z,1.00
2022-11-02T23:53:52.214Z,1.00
2022-11-02T23:56:40.125Z,1.00
2022-11-02T23:59:06.944Z,1.00
